Time;durP1;ratioP1;P1;durP2;ratioP2;P2;SDS_P1;SDS_P2;PMS_P1;PMS_P2;Temp;Humidity;BMP_temperature;BMP_pressure;BME280_temperature;BME280_humidity;BME280_pressure;Samples;Min_cycle;Max_cycle;Signal;HPM_P1;HPM_P2
2023/06/26 00:01:07;;;;;;;11.00;10.20;;;;;;;;;;5093895;28;20888;-59
2023/06/26 00:03:34;;;;;;;10.93;10.13;;;;;;;;;;5093749;28;20453;-59
2023/06/26 00:06:01;;;;;;;11.20;10.30;;;;;;;;;;5093672;28;20449;-59
2023/06/26 00:08:28;;;;;;;10.60;9.80;;;;;;;;;;5093604;28;20546;-59
2023/06/26 00:10:55;;;;;;;10.97;9.97;;;;;;;;;;5093524;28;20451;-59
2023/06/26 00:13:23;;;;;;;11.30;10.40;;;;;;;;;;5093654;28;20534;-59
2023/06/26 00:15:50;;;;;;;10.53;9.73;;;;;;;;;;5093618;28;20443;-59
2023/06/26 00:18:18;;;;;;;10.60;9.70;;;;;;;;;;5093461;28;20864;-59
2023/06/26 00:20:45;;;;;;;10.70;9.77;;;;;;;;;;5093107;28;20447;-59
2023/06/26 00:23:16;;;;;;;11.20;10.30;;;;;;;;;;5093199;28;20453;-59
2023/06/26 00:25:43;;;;;;;10.93;9.93;;;;;;;;;;5093506;28;20512;-59
2023/06/26 00:28:10;;;;;;;11.27;10.37;;;;;;;;;;5093457;28;20537;-59
2023/06/26 00:30:37;;;;;;;12.13;11.03;;;;;;;;;;5093446;28;20443;-59
2023/06/26 00:33:04;;;;;;;10.83;10.03;;;;;;;;;;5093156;28;20941;-59
2023/06/26 00:35:32;;;;;;;10.50;9.57;;;;;;;;;;5093220;28;20558;-59
2023/06/26 00:37:59;;;;;;;11.03;10.10;;;;;;;;;;5092940;28;20485;-60
2023/06/26 00:40:26;;;;;;;11.43;10.33;;;;;;;;;;5093308;28;20534;-59
2023/06/26 00:42:53;;;;;;;10.60;9.80;;;;;;;;;;5093203;28;20478;-59
2023/06/26 00:45:20;;;;;;;12.23;10.90;;;;;;;;;;5093120;28;20545;-59
2023/06/26 00:47:47;;;;;;;10.67;9.87;;;;;;;;;;5093079;28;20447;-59
2023/06/26 00:50:15;;;;;;;12.07;11.07;;;;;;;;;;5093052;28;20449;-59
2023/06/26 00:52:44;;;;;;;10.87;9.77;;;;;;;;;;5092904;28;20784;-59
2023/06/26 00:55:11;;;;;;;10.80;10.00;;;;;;;;;;5093163;28;20538;-59
2023/06/26 00:57:37;;;;;;;10.53;9.63;;;;;;;;;;5092794;28;20586;-59
2023/06/26 01:00:05;;;;;;;10.27;9.33;;;;;;;;;;5092976;28;20447;-59
2023/06/26 01:02:33;;;;;;;10.17;9.27;;;;;;;;;;5092883;28;20818;-59
2023/06/26 01:05:03;;;;;;;10.67;9.67;;;;;;;;;;5093244;28;20528;-59
2023/06/26 01:07:32;;;;;;;10.50;9.70;;;;;;;;;;5093048;28;20519;-59
2023/06/26 01:10:00;;;;;;;11.53;10.53;;;;;;;;;;5093000;28;20450;-59
2023/06/26 01:12:27;;;;;;;11.67;10.67;;;;;;;;;;5092919;28;20476;-59
2023/06/26 01:14:54;;;;;;;11.43;10.53;;;;;;;;;;5092846;28;20447;-59
2023/06/26 01:17:21;;;;;;;12.17;10.83;;;;;;;;;;5092692;28;20493;-59
2023/06/26 01:19:49;;;;;;;11.33;10.23;;;;;;;;;;5092601;28;20528;-59
2023/06/26 01:22:26;;;;;;;11.97;10.87;;;;;;;;;;5092899;28;20454;-59
2023/06/26 01:24:58;;;;;;;12.50;11.50;;;;;;;;;;5092835;28;20461;-59
2023/06/26 01:27:27;;;;;;;11.93;10.83;;;;;;;;;;5092778;28;20822;-59
2023/06/26 01:29:55;;;;;;;10.60;9.70;;;;;;;;;;5092614;28;20537;-59
2023/06/26 01:32:22;;;;;;;12.17;11.07;;;;;;;;;;5092547;28;20624;-59
2023/06/26 01:34:49;;;;;;;11.47;10.57;;;;;;;;;;5096387;28;20460;-59
2023/06/26 01:37:15;;;;;;;10.83;9.97;;;;;;;;;;5096475;28;20545;-59
2023/06/26 01:39:42;;;;;;;11.47;10.53;;;;;;;;;;5096496;28;20449;-59
2023/06/26 01:42:09;;;;;;;12.57;11.50;;;;;;;;;;5096374;28;20453;-59
2023/06/26 01:44:41;;;;;;;11.53;10.53;;;;;;;;;;5096268;28;20453;-59
2023/06/26 01:47:10;;;;;;;12.17;10.97;;;;;;;;;;5096482;28;20446;-59
2023/06/26 01:49:43;;;;;;;11.63;10.80;;;;;;;;;;5096340;28;20447;-59
2023/06/26 01:52:15;;;;;;;11.53;10.60;;;;;;;;;;5096257;28;20810;-59
2023/06/26 01:54:46;;;;;;;11.47;10.47;;;;;;;;;;5096170;28;20453;-59
2023/06/26 01:57:12;;;;;;;11.63;10.73;;;;;;;;;;5095858;28;20566;-59
2023/06/26 01:59:42;;;;;;;13.33;12.20;;;;;;;;;;5096296;28;20460;-59
2023/06/26 02:02:09;;;;;;;12.90;11.80;;;;;;;;;;5096122;28;20457;-59
2023/06/26 02:04:37;;;;;;;11.40;10.50;;;;;;;;;;5096096;28;20450;-59
2023/06/26 02:07:04;;;;;;;12.40;11.20;;;;;;;;;;5095966;28;20447;-59
2023/06/26 02:09:31;;;;;;;12.60;11.50;;;;;;;;;;5095844;28;20447;-59
2023/06/26 02:11:57;;;;;;;13.17;12.07;;;;;;;;;;5095801;28;20473;-59
2023/06/26 02:14:24;;;;;;;11.43;10.47;;;;;;;;;;5095899;28;20537;-58
2023/06/26 02:16:52;;;;;;;12.03;10.93;;;;;;;;;;5095851;28;20454;-59
2023/06/26 02:19:21;;;;;;;11.53;10.43;;;;;;;;;;5095710;28;20491;-59
2023/06/26 02:21:48;;;;;;;12.20;11.27;;;;;;;;;;5095641;28;20451;-59
2023/06/26 02:24:15;;;;;;;11.53;10.53;;;;;;;;;;5095567;28;20446;-59
2023/06/26 02:26:42;;;;;;;11.70;10.70;;;;;;;;;;5095632;28;20484;-59
2023/06/26 02:29:09;;;;;;;10.13;9.33;;;;;;;;;;5095674;28;20546;-59
2023/06/26 02:31:36;;;;;;;11.40;10.50;;;;;;;;;;5095602;28;20449;-59
2023/06/26 02:34:04;;;;;;;11.40;10.20;;;;;;;;;;5095486;28;20538;-59
2023/06/26 02:36:31;;;;;;;13.13;11.23;;;;;;;;;;5095361;28;20540;-59
2023/06/26 02:38:58;;;;;;;11.67;10.53;;;;;;;;;;5095179;28;20503;-59
2023/06/26 02:41:25;;;;;;;12.77;11.57;;;;;;;;;;5095417;28;20880;-59
2023/06/26 02:43:52;;;;;;;12.20;11.20;;;;;;;;;;5095080;28;20443;-59
2023/06/26 02:46:19;;;;;;;11.77;10.50;;;;;;;;;;5095268;28;20451;-59
2023/06/26 02:48:45;;;;;;;15.93;11.00;;;;;;;;;;5095092;28;21016;-59
2023/06/26 02:51:14;;;;;;;11.37;10.47;;;;;;;;;;5095043;28;20472;-59
2023/06/26 02:53:41;;;;;;;11.97;10.87;;;;;;;;;;5095025;28;20452;-59
2023/06/26 02:56:07;;;;;;;12.53;11.53;;;20.60;99.90;;;;;;5094915;28;20477;-60
2023/06/26 02:58:34;;;;;;;12.87;11.67;;;20.50;99.90;;;;;;5095000;28;20989;-59
2023/06/26 03:01:00;;;;;;;13.93;12.60;;;20.50;99.90;;;;;;5094977;28;20443;-59
2023/06/26 03:03:27;;;;;;;13.10;12.00;;;20.60;99.90;;;;;;5094817;28;20481;-59
2023/06/26 03:05:53;;;;;;;16.43;13.17;;;20.50;99.90;;;;;;5094686;28;20458;-59
2023/06/26 03:08:21;;;;;;;13.90;12.60;;;20.40;99.90;;;;;;5094880;28;20453;-59
2023/06/26 03:10:48;;;;;;;14.10;12.90;;;20.50;99.90;;;;;;5094857;28;20447;-59
2023/06/26 03:13:14;;;;;;;13.37;12.33;;;20.20;99.90;;;;;;5094736;28;20512;-59
2023/06/26 03:15:41;;;;;;;14.40;12.90;;;20.40;99.90;;;;;;5094632;28;20447;-59
2023/06/26 03:18:07;;;;;;;14.80;13.40;;;20.40;99.90;;;;;;5094477;28;20553;-59
2023/06/26 03:20:33;;;;;;;13.93;12.73;;;20.50;99.90;;;;;;5094445;28;20537;-59
2023/06/26 03:23:00;;;;;;;14.00;12.70;;;20.50;99.90;;;;;;5094628;28;20450;-59
2023/06/26 03:25:28;;;;;;;13.70;12.50;;;20.50;99.90;;;;;;5094526;28;20538;-59
2023/06/26 03:27:54;;;;;;;14.43;13.23;;;20.40;99.90;;;;;;5094425;28;20439;-59
2023/06/26 03:30:21;;;;;;;14.50;13.30;;;20.50;99.90;;;;;;5094277;28;20542;-59
2023/06/26 03:32:47;;;;;;;13.47;12.37;;;20.40;99.90;;;;;;5094207;28;20453;-59
2023/06/26 03:35:14;;;;;;;14.77;13.37;;;20.50;99.90;;;;;;5094105;28;20487;-59
2023/06/26 03:37:41;;;;;;;15.97;13.60;;;20.40;99.90;;;;;;5094199;28;20536;-59
2023/06/26 03:40:09;;;;;;;15.20;13.90;;;20.30;99.90;;;;;;5094182;28;20454;-59
2023/06/26 03:42:37;;;;;;;14.57;13.07;;;20.20;99.90;;;;;;5094199;28;20482;-59
2023/06/26 03:45:03;;;;;;;15.37;13.97;;;20.10;99.90;;;;;;5094102;28;20807;-59
2023/06/26 03:47:30;;;;;;;14.93;13.73;;;20.10;99.90;;;;;;5093883;28;20458;-60
2023/06/26 03:49:56;;;;;;;15.50;14.10;;;20.00;99.90;;;;;;5093851;28;20487;-59
2023/06/26 03:52:23;;;;;;;15.47;14.00;;;20.00;99.90;;;;;;5093792;28;20884;-60
2023/06/26 03:54:50;;;;;;;15.27;13.93;;;20.10;99.90;;;;;;5093772;28;20457;-59
2023/06/26 03:57:16;;;;;;;15.00;13.60;;;20.20;99.90;;;;;;5092995;28;20481;-59
2023/06/26 03:59:44;;;;;;;16.90;15.40;;;20.20;99.90;;;;;;5093696;28;20489;-59
2023/06/26 04:02:12;;;;;;;16.07;14.67;;;20.00;99.90;;;;;;5093552;28;20453;-60
2023/06/26 04:04:38;;;;;;;17.07;15.10;;;20.00;99.90;;;;;;5093878;28;20446;-59
2023/06/26 04:07:05;;;;;;;16.93;15.43;;;20.20;99.90;;;;;;5093705;28;20484;-60
2023/06/26 04:09:32;;;;;;;15.37;14.00;;;20.30;99.90;;;;;;5093669;28;20814;-59
2023/06/26 04:11:58;;;;;;;15.13;13.90;;;20.30;99.90;;;;;;5093594;28;20474;-60
2023/06/26 04:14:25;;;;;;;15.60;14.30;;;20.50;99.90;;;;;;5093450;28;20983;-59
2023/06/26 04:16:52;;;;;;;15.93;14.50;;;20.60;99.90;;;;;;5093242;28;20960;-59
2023/06/26 04:19:19;;;;;;;14.57;13.23;;;20.60;99.90;;;;;;5093481;28;20482;-59
2023/06/26 04:21:46;;;;;;;16.47;14.97;;;20.70;99.90;;;;;;5093678;28;20447;-60
2023/06/26 04:24:12;;;;;;;17.23;15.63;;;20.80;99.90;;;;;;5093433;28;20447;-59
2023/06/26 04:26:40;;;;;;;15.60;14.30;;;20.90;99.90;;;;;;5093364;28;20447;-59
2023/06/26 04:29:07;;;;;;;16.60;15.20;;;20.90;99.90;;;;;;5093240;28;20504;-59
2023/06/26 04:31:34;;;;;;;16.10;14.73;;;21.10;99.90;;;;;;5093640;28;20453;-59
2023/06/26 04:34:01;;;;;;;15.77;14.40;;;21.10;99.90;;;;;;5093233;28;20454;-59
2023/06/26 04:36:28;;;;;;;15.47;14.17;;;21.10;99.90;;;;;;5093302;28;20863;-59
2023/06/26 04:38:55;;;;;;;15.90;14.50;;;20.90;99.90;;;;;;5093084;28;20474;-59
2023/06/26 04:41:21;;;;;;;16.93;15.20;;;21.00;99.90;;;;;;5093089;28;20486;-59
2023/06/26 04:43:48;;;;;;;15.60;14.23;;;21.00;99.90;;;;;;5092978;28;20486;-60
2023/06/26 04:46:15;;;;;;;14.63;13.43;;;21.20;99.90;;;;;;5092876;28;20445;-59
2023/06/26 04:48:41;;;;;;;14.57;13.17;;;21.20;99.90;;;;;;5093107;28;20550;-59
2023/06/26 04:51:09;;;;;;;15.73;14.43;;;21.10;99.90;;;;;;5093033;28;20481;-59
2023/06/26 04:53:35;;;;;;;15.73;14.23;;;21.10;99.90;;;;;;5092971;28;20569;-59
2023/06/26 04:56:02;;;;;;;15.27;13.67;;;21.10;99.90;;;;;;5092810;28;20471;-59
2023/06/26 04:58:28;;;;;;;15.77;14.40;;;21.30;99.90;;;;;;5092724;28;20528;-60
2023/06/26 05:00:55;;;;;;;16.87;15.30;;;21.20;99.90;;;;;;5093215;28;20454;-59
2023/06/26 05:03:22;;;;;;;15.80;14.40;;;21.30;99.90;;;;;;5092838;28;20547;-60
2023/06/26 05:05:50;;;;;;;15.83;14.63;;;21.40;99.90;;;;;;5092948;28;20493;-59
2023/06/26 05:08:19;;;;;;;16.60;15.00;;;21.40;99.90;;;;;;5093968;28;20486;-59
2023/06/26 05:10:46;;;;;;;14.60;13.40;;;21.50;99.90;;;;;;5096912;28;20487;-59
2023/06/26 05:13:14;;;;;;;14.57;13.37;;;21.50;99.90;;;;;;5096863;28;20447;-59
2023/06/26 05:15:41;;;;;;;14.00;12.80;;;21.80;99.90;;;;;;5096823;28;20454;-59
2023/06/26 05:18:08;;;;;;;15.23;14.00;;;21.90;99.90;;;;;;5096936;28;20446;-60
2023/06/26 05:20:35;;;;;;;14.37;13.13;;;21.90;99.90;;;;;;5096674;28;20485;-60
2023/06/26 05:23:02;;;;;;;14.67;13.57;;;22.00;99.90;;;;;;5096730;28;20496;-59
2023/06/26 05:25:31;;;;;;;15.87;14.50;;;22.00;99.90;;;;;;5096558;28;20453;-59
2023/06/26 05:27:58;;;;;;;15.47;14.07;;;22.10;99.90;;;;;;5096800;28;20439;-59
2023/06/26 05:30:26;;;;;;;14.93;13.73;;;22.30;99.90;;;;;;5096640;28;20783;-60
2023/06/26 05:32:53;;;;;;;14.83;13.63;;;22.20;99.90;;;;;;5096540;28;20446;-60
2023/06/26 05:35:21;;;;;;;14.23;13.03;;;22.30;99.90;;;;;;5096523;28;20453;-59
2023/06/26 05:37:49;;;;;;;16.00;14.70;;;22.40;99.90;;;;;;5096361;28;20451;-59
2023/06/26 05:40:17;;;;;;;14.83;13.53;;;22.50;99.90;;;;;;5096138;28;20470;-60
2023/06/26 05:42:46;;;;;;;15.50;13.83;;;22.60;99.90;;;;;;5096403;28;20537;-59
2023/06/26 05:45:12;;;;;;;13.87;12.67;;;22.60;99.90;;;;;;5096062;28;20541;-59
2023/06/26 05:47:39;;;;;;;16.17;13.60;;;22.70;99.90;;;;;;5096233;28;20443;-59
2023/06/26 05:50:09;;;;;;;13.03;12.07;;;22.80;99.90;;;;;;5096119;28;20887;-59
2023/06/26 05:52:36;;;;;;;13.90;12.70;;;23.30;99.90;;;;;;5095888;28;20541;-59
2023/06/26 05:55:03;;;;;;;12.53;11.60;;;23.60;99.90;;;;;;5096165;28;20447;-60
2023/06/26 05:57:31;;;;;;;12.60;11.43;;;23.70;99.90;;;;;;5095860;28;21023;-60
2023/06/26 05:59:59;;;;;;;11.23;10.40;;;23.70;99.90;;;;;;5096033;28;20573;-60
2023/06/26 06:02:25;;;;;;;12.97;11.63;;;23.90;99.90;;;;;;5095978;28;20453;-60
2023/06/26 06:04:52;;;;;;;13.40;12.10;;;24.10;99.90;;;;;;5095865;28;20450;-60
2023/06/26 06:07:18;;;;;;;12.90;11.90;;;24.30;99.90;;;;;;5095753;28;20446;-60
2023/06/26 06:09:45;;;;;;;12.50;11.40;;;24.40;99.90;;;;;;5096000;28;20451;-60
2023/06/26 06:12:11;;;;;;;11.40;10.50;;;24.70;99.90;;;;;;5095774;28;20453;-60
2023/06/26 06:14:38;;;;;;;11.70;10.80;;;24.70;99.90;;;;;;5095722;28;20554;-60
2023/06/26 06:17:06;;;;;;;13.03;11.80;;;24.70;99.90;;;;;;5095715;28;20883;-60
2023/06/26 06:19:33;;;;;;;9.83;9.13;;;;;;;;;;5094881;28;20471;-60
2023/06/26 06:21:59;;;;;;;10.23;9.43;;;;;;;;;;5095818;28;20446;-60
2023/06/26 06:24:26;;;;;;;9.60;8.90;;;;;;;;;;5095568;28;20446;-60
2023/06/26 06:26:53;;;;;;;10.00;9.07;;;;;;;;;;5095585;28;20799;-60
2023/06/26 06:29:20;;;;;;;10.67;9.77;;;;;;;;;;5095565;28;20448;-60
2023/06/26 06:31:47;;;;;;;9.87;9.20;;;;;;;;;;5095383;28;20534;-59
2023/06/26 06:34:15;;;;;;;10.50;9.80;;;;;;;;;;5095262;28;20457;-60
2023/06/26 06:36:42;;;;;;;10.07;9.07;;;;;;;;;;5095449;28;20810;-60
2023/06/26 06:39:09;;;;;;;9.17;8.50;;;;;;;;;;5095383;28;20478;-60
2023/06/26 06:41:36;;;;;;;9.23;8.63;;;;;;;;;;5095313;28;20485;-60
2023/06/26 06:44:03;;;;;;;9.97;9.00;;;;;;;;;;5095197;28;20500;-60
2023/06/26 06:46:30;;;;;;;9.40;8.70;;;;;;;;;;5095142;28;20946;-60
2023/06/26 06:48:57;;;;;;;9.87;8.97;;;;;;;;;;5095045;28;20447;-60
2023/06/26 06:51:25;;;;;;;8.33;7.60;;;;;;;;;;5095139;28;20447;-60
2023/06/26 06:53:52;;;;;;;9.53;8.77;;;;;;;;;;5095053;28;20459;-59
2023/06/26 06:56:19;;;;;;;8.50;7.90;;;;;;;;;;5094829;28;20478;-60
2023/06/26 06:58:46;;;;;;;8.20;7.50;;;;;;;;;;5094807;28;20453;-60
2023/06/26 07:01:13;;;;;;;8.13;7.53;;;;;;;;;;5094653;28;20455;-60
2023/06/26 07:03:40;;;;;;;7.83;7.23;;;;;;;;;;5094717;28;20452;-59
2023/06/26 07:06:07;;;;;;;7.70;7.10;;;;;;;;;;5094996;28;20534;-59
2023/06/26 07:08:36;;;;;;;10.63;7.67;;;;;;;;;;5094739;28;20542;-60
2023/06/26 07:11:03;;;;;;;7.00;6.40;;;;;;;;;;5094646;28;20838;-59
2023/06/26 07:13:29;;;;;;;7.57;7.07;;;;;;;;;;5094359;28;20451;-59
2023/06/26 07:15:56;;;;;;;10.13;6.67;;;;;;;;;;5094462;28;20516;-60
2023/06/26 07:18:23;;;;;;;6.60;6.03;;;;;;;;;;5094524;28;20490;-59
2023/06/26 07:20:50;;;;;;;6.77;6.30;;;;;;;;;;5093917;28;21029;-59
2023/06/26 07:23:17;;;;;;;6.63;6.10;;;;;;;;;;5094318;28;20474;-58
2023/06/26 07:25:45;;;;;;;6.97;6.37;;;;;;;;;;5094351;28;20447;-57
2023/06/26 07:28:12;;;;;;;6.93;6.33;;;;;;;;;;5094226;28;20542;-58
2023/06/26 07:30:40;;;;;;;6.17;5.57;;;;;;;;;;5093172;28;20530;-59
2023/06/26 07:33:07;;;;;;;6.47;5.97;;;;;;;;;;5094026;28;20442;-60
2023/06/26 07:35:34;;;;;;;6.57;6.13;;;;;;;;;;5093924;28;20450;-60
2023/06/26 07:38:01;;;;;;;7.53;6.90;;;;;;;;;;5093577;28;20446;-60
2023/06/26 07:40:28;;;;;;;5.93;5.53;;;;;;;;;;5093661;28;20508;-60
2023/06/26 07:42:58;;;;;;;8.60;6.23;;;;;;;;;;5085383;28;20448;-60
2023/06/26 07:45:25;;;;;;;5.80;5.40;;;;;;;;;;5091351;28;20446;-59
2023/06/26 07:47:51;;;;;;;6.33;5.80;;;;;;;;;;5093367;28;20976;-60
2023/06/26 07:50:22;;;;;;;6.27;5.77;;;;;;;;;;5093852;28;20435;-59
2023/06/26 07:52:49;;;;;;;6.23;5.80;;;;;;;;;;5092279;28;20934;-60
2023/06/26 07:55:16;;;;;;;5.83;5.43;;;;;;;;;;5093565;28;20559;-59
2023/06/26 07:57:43;;;;;;;5.77;5.37;;;;;;;;;;5093440;28;21002;-59
2023/06/26 08:00:12;;;;;;;6.20;5.80;;;;;;;;;;5093709;28;20664;-59
2023/06/26 08:02:39;;;;;;;5.63;4.77;;;;;;;;;;5093749;28;20451;-58
2023/06/26 08:05:06;;;;;;;5.70;5.23;;;;;;;;;;5093726;28;20447;-60
2023/06/26 08:07:33;;;;;;;6.00;5.50;;;;;;;;;;5093434;28;20447;-60
2023/06/26 08:10:00;;;;;;;5.43;5.00;;;;;;;;;;5093418;28;20829;-59
2023/06/26 08:12:27;;;;;;;5.70;5.20;;;;;;;;;;5093396;28;20447;-60
2023/06/26 08:14:54;;;;;;;5.17;4.87;;;;;;;;;;5093469;28;20457;-59
2023/06/26 08:17:22;;;;;;;7.10;5.83;;;;;;;;;;5093288;28;20457;-58
2023/06/26 08:19:49;;;;;;;4.63;4.33;;;;;;;;;;5093236;28;20478;-58
2023/06/26 08:22:16;;;;;;;5.17;4.77;;;;;;;;;;5093257;28;20784;-62
2023/06/26 08:24:42;;;;;;;4.20;3.90;;;;;;;;;;5093121;28;20451;-62
2023/06/26 08:27:09;;;;;;;4.43;4.13;;;;;;;;;;5093332;28;20534;-62
2023/06/26 08:29:36;;;;;;;4.50;4.20;;;;;;;;;;5093059;28;20962;-62
2023/06/26 08:32:03;;;;;;;4.10;3.80;;;;;;;;;;5093123;28;20810;-59
2023/06/26 08:34:31;;;;;;;6.00;4.13;;;;;;;;;;5093191;28;20447;-60
2023/06/26 08:36:58;;;;;;;3.83;3.53;;;;;;;;;;5093019;28;20447;-60
2023/06/26 08:39:25;;;;;;;5.20;4.80;;;;;;;;;;5092833;28;20465;-57
2023/06/26 08:41:52;;;;;;;4.60;4.40;;;;;;;;;;5092444;28;20447;-61
2023/06/26 08:44:24;;;;;;;4.20;3.90;;;;;;;;;;5089908;28;21033;-59
2023/06/26 08:46:51;;;;;;;7.80;4.50;;;;;;;;;;5092662;28;20443;-59
2023/06/26 08:49:21;;;;;;;3.53;3.33;;;;;;;;;;5089716;28;20447;-59
2023/06/26 08:51:53;;;;;;;4.83;4.53;;;;;;;;;;5092598;28;20457;-59
2023/06/26 08:54:21;;;;;;;4.00;3.80;;;;;;;;;;5092160;28;20930;-59
2023/06/26 08:56:49;;;;;;;4.17;3.93;;;;;;;;;;5091551;28;20475;-59
2023/06/26 08:59:17;;;;;;;3.60;3.40;;;;;;;;;;5089861;28;20799;-59
2023/06/26 09:01:44;;;;;;;3.63;3.43;;;;;;;;;;5092316;28;20841;-59
2023/06/26 09:04:10;;;;;;;3.57;3.37;;;;;;;;;;5092515;28;20466;-59
2023/06/26 09:06:39;;;;;;;5.30;3.70;;;;;;;;;;5092572;28;20530;-59
2023/06/26 09:09:08;;;;;;;3.40;3.20;;;;;;;;;;5092916;28;20483;-59
2023/06/26 09:11:35;;;;;;;5.47;3.40;;;;;;;;;;5092729;28;20462;-60
2023/06/26 09:14:04;;;;;;;3.63;3.43;;;;;;;;;;5092690;28;20443;-59
2023/06/26 09:16:31;;;;;;;3.47;3.27;;;;;;;;;;5092500;28;20925;-57
2023/06/26 09:18:58;;;;;;;3.40;3.20;;;;;;;;;;5092466;28;20673;-57
2023/06/26 09:21:25;;;;;;;4.13;3.90;;;;;;;;;;5092581;28;20482;-58
2023/06/26 09:23:54;;;;;;;3.30;3.10;;;;;;;;;;5092584;28;20888;-57
2023/06/26 09:26:22;;;;;;;3.20;3.00;;;;;;;;;;5092403;28;20458;-58
2023/06/26 09:28:50;;;;;;;3.30;3.10;;;;;;;;;;5092331;28;20462;-58
2023/06/26 09:31:20;;;;;;;3.83;3.63;;;;;;;;;;5092258;28;20965;-59
2023/06/26 09:33:49;;;;;;;3.93;3.60;;;;;;;;;;5092118;28;20864;-59
2023/06/26 09:36:20;;;;;;;5.97;3.57;;;;;;;;;;5091782;28;20492;-58
2023/06/26 09:38:47;;;;;;;3.80;3.50;;;;;;;;;;5089466;28;20442;-59
2023/06/26 09:41:16;;;;;;;4.57;4.17;;;;;;;;;;5091902;28;20479;-57
2023/06/26 09:43:49;;;;;;;3.77;3.47;;;;;;;;;;5092217;28;20453;-58
2023/06/26 09:46:17;;;;;;;4.33;4.03;;;;;;;;;;5092435;28;20454;-60
2023/06/26 09:48:44;;;;;;;4.70;4.40;;;;;;;;;;5092342;28;20453;-60
2023/06/26 09:51:11;;;;;;;3.83;3.53;;;;;;;;;;5092142;28;20438;-61
2023/06/26 09:53:38;;;;;;;3.77;3.47;;;;;;;;;;5092462;28;20453;-58
2023/06/26 09:56:08;;;;;;;3.67;3.47;;;;;;;;;;5095840;28;20466;-57
2023/06/26 09:58:35;;;;;;;5.03;3.67;;;;;;;;;;5095759;28;20582;-57
2023/06/26 10:01:03;;;;;;;4.60;4.20;;;;;;;;;;5095707;28;20489;-57
2023/06/26 10:03:31;;;;;;;5.03;4.33;;;;;;;;;;5095181;28;20537;-57
2023/06/26 10:05:58;;;;;;;3.33;3.13;;;;;;;;;;5095359;28;20471;-58
2023/06/26 10:08:25;;;;;;;4.17;3.87;;;;;;;;;;5095269;28;20445;-58
2023/06/26 10:10:53;;;;;;;3.80;3.60;;;;;;;;;;5095403;28;20481;-57
2023/06/26 10:13:23;;;;;;;4.30;4.00;;;;;;;;;;5095658;28;20539;-57
2023/06/26 10:15:51;;;;;;;3.90;3.67;;;;;;;;;;5095438;28;20447;-57
2023/06/26 10:18:20;;;;;;;4.10;3.80;;;;;;;;;;5094966;28;20435;-59
2023/06/26 10:20:48;;;;;;;3.80;3.50;;;;;;;;;;5094862;28;20856;-59
2023/06/26 10:23:15;;;;;;;4.37;4.07;;;;;;;;;;5094791;28;20446;-59
2023/06/26 10:25:42;;;;;;;5.00;4.60;;;;;;;;;;5095173;28;20473;-60
2023/06/26 10:28:11;;;;;;;4.00;3.67;;;;;;;;;;5095404;28;20451;-58
2023/06/26 10:30:38;;;;;;;5.13;4.73;;;;;;;;;;5095368;28;20863;-58
2023/06/26 10:33:05;;;;;;;4.07;3.77;;;;;;;;;;5095000;28;20451;-58
2023/06/26 10:35:34;;;;;;;5.30;4.97;;;;;;;;;;5094220;28;20534;-58
2023/06/26 10:38:04;;;;;;;4.17;3.90;;;;;;;;;;5094320;28;20537;-59
2023/06/26 10:40:41;;;;;;;14.90;13.50;;;;;;;;;;5092041;28;20482;-58
2023/06/26 10:43:09;;;;;;;4.20;3.90;;;;;;;;;;5094698;28;20434;-60
2023/06/26 10:45:36;;;;;;;4.30;4.10;;;;;;;;;;5094628;28;20939;-60
2023/06/26 10:48:04;;;;;;;5.43;4.93;;;;;;;;;;5094820;28;20542;-62
2023/06/26 10:50:32;;;;;;;4.80;4.40;;;;;;;;;;5094780;28;20818;-60
2023/06/26 10:53:14;;;;;;;4.53;4.23;;;;;;;;;;5094802;28;20488;-59
2023/06/26 10:55:45;;;;;;;4.37;4.07;;;;;;;;;;5093518;28;20513;-59
2023/06/26 10:58:31;;;;;;;5.23;4.87;;;;;;;;;;5092430;28;20454;-60
2023/06/26 11:01:15;;;;;;;4.73;4.43;;;;;;;;;;5092958;28;20506;-58
2023/06/26 11:03:43;;;;;;;4.20;4.00;;;;;;;;;;5094751;28;20450;-60
2023/06/26 11:06:10;;;;;;;3.80;3.60;;;;;;;;;;5094528;28;20542;-60
2023/06/26 11:08:46;;;;;;;4.10;3.70;;;;;;;;;;5094620;28;20447;-60
2023/06/26 11:11:14;;;;;;;4.87;4.47;;;;;;;;;;5094508;28;20447;-60
2023/06/26 11:13:41;;;;;;;3.87;3.60;;;;;;;;;;5094514;28;20533;-60
2023/06/26 11:16:08;;;;;;;4.30;4.00;;;;;;;;;;5094565;28;20488;-60
2023/06/26 11:18:35;;;;;;;4.87;4.53;;;;;;;;;;5094106;28;20447;-60
2023/06/26 11:21:08;;;;;;;4.90;4.50;;;;;;;;;;5094029;28;20977;-60
2023/06/26 11:23:36;;;;;;;4.90;4.50;;;;;;;;;;5094251;28;20483;-59
2023/06/26 11:26:17;;;;;;;4.57;4.37;;;;;;;;;;5093960;28;20447;-59
2023/06/26 11:28:48;;;;;;;4.77;4.30;;;;;;;;;;5094346;28;20455;-59
2023/06/26 11:31:25;;;;;;;4.13;3.70;;;;;;;;;;5094139;28;20447;-58
2023/06/26 11:33:52;;;;;;;4.20;3.90;;;;;;;;;;5094156;28;20798;-59
2023/06/26 11:36:19;;;;;;;4.10;3.90;;;;;;;;;;5094049;28;20485;-58
2023/06/26 11:38:46;;;;;;;3.90;3.70;;;;;;;;;;5094210;28;20451;-58
2023/06/26 11:41:19;;;;;;;4.27;3.90;;;;;;;;;;5093792;28;21004;-59
2023/06/26 11:43:46;;;;;;;3.87;3.67;;;;;;;;;;5094095;28;20513;-58
2023/06/26 11:46:13;;;;;;;4.37;4.00;;;;;;;;;;5094000;28;20451;-60
2023/06/26 11:48:40;;;;;;;4.40;4.07;;;;;;;;;;5093780;28;20498;-59
2023/06/26 11:51:07;;;;;;;3.90;3.70;;;;;;;;;;5094003;28;20492;-60
2023/06/26 11:53:40;;;;;;;4.07;3.73;;;;;;;;;;5093816;28;20450;-61
2023/06/26 11:56:09;;;;;;;4.07;3.77;;;;;;;;;;5093380;28;20467;-58
2023/06/26 11:58:37;;;;;;;10.50;4.73;;;;;;;;;;5093440;28;20443;-59
2023/06/26 12:01:04;;;;;;;4.70;4.30;;;;;;;;;;5092952;28;20494;-60
2023/06/26 12:03:33;;;;;;;4.60;4.30;;;;;;;;;;5093010;28;20440;-59
2023/06/26 12:06:03;;;;;;;4.07;3.87;;;;;;;;;;5093306;28;20447;-60
2023/06/26 12:08:30;;;;;;;4.63;4.20;;;;;;;;;;5088079;28;20440;-61
2023/06/26 12:10:57;;;;;;;4.33;4.13;;;;;;;;;;5093514;28;20450;-59
2023/06/26 12:13:24;;;;;;;4.47;4.17;;;;;;;;;;5093432;28;20450;-60
2023/06/26 12:15:54;;;;;;;4.80;4.40;;;;;;;;;;5092959;28;20450;-58
2023/06/26 12:18:24;;;;;;;5.70;5.23;;;;;;;;;;5092845;28;20447;-59
2023/06/26 12:20:51;;;;;;;8.97;4.40;;;;;;;;;;5093198;28;20475;-59
2023/06/26 12:23:18;;;;;;;4.50;4.20;;;;;;;;;;5093013;28;20542;-57
2023/06/26 12:25:46;;;;;;;5.17;4.77;;;;;;;;;;5093135;28;20475;-56
2023/06/26 12:28:19;;;;;;;4.03;3.70;;;;;;;;;;5092904;28;20829;-58
2023/06/26 12:30:49;;;;;;;4.10;3.90;;;;;;;;;;5093283;28;20453;-57
2023/06/26 12:33:17;;;;;;;4.60;4.20;;;;;;;;;;5092594;28;20450;-57
2023/06/26 12:35:44;;;;;;;5.07;4.60;;;;;;;;;;5092579;28;20447;-56
2023/06/26 12:38:15;;;;;;;4.90;4.50;;;;;;;;;;5092721;28;20478;-57
2023/06/26 12:40:46;;;;;;;4.53;4.23;;;;;;;;;;5092336;28;20522;-58
2023/06/26 12:43:23;;;;;;;4.70;4.40;;;;;;;;;;5090454;28;20448;-58
2023/06/26 12:45:50;;;;;;;4.53;4.23;;;;;;;;;;5089731;28;20969;-58
2023/06/26 12:48:20;;;;;;;4.70;4.30;;;;;;;;;;5089884;28;20469;-58
2023/06/26 12:50:47;;;;;;;4.57;4.20;;;;;;;;;;5092353;28;20447;-57
2023/06/26 12:53:14;;;;;;;4.77;4.37;;;;;;;;;;5092307;28;20965;-57
2023/06/26 12:55:41;;;;;;;6.17;5.57;;;;;;;;;;5092442;28;20553;-58
2023/06/26 12:58:08;;;;;;;5.00;4.70;;;;;;;;;;5092823;28;20452;-57
2023/06/26 13:00:35;;;;;;;4.50;4.10;;;;;;;;;;5092791;28;20447;-58
2023/06/26 13:03:02;;;;;;;5.00;4.60;;;;;;;;;;5092539;28;20553;-57
2023/06/26 13:05:30;;;;;;;4.33;4.13;;;;;;;;;;5092699;28;20850;-57
2023/06/26 13:07:58;;;;;;;5.13;4.83;;;;;;;;;;5092436;28;20530;-57
2023/06/26 13:10:28;;;;;;;4.53;4.23;;;;;;;;;;5092541;28;20439;-57
2023/06/26 13:12:55;;;;;;;5.03;4.73;;;;;;;;;;5092379;28;20801;-58
2023/06/26 13:15:22;;;;;;;6.00;4.40;;;;;;;;;;5091900;28;20448;-58
2023/06/26 13:17:49;;;;;;;4.90;4.60;;;;;;;;;;5092496;28;20522;-57
2023/06/26 13:20:16;;;;;;;16.33;15.00;;;;;;;;;;5092079;28;20535;-57
2023/06/26 13:22:46;;;;;;;6.10;5.70;;;;;;;;;;5091775;28;20455;-58
2023/06/26 13:25:13;;;;;;;4.60;4.30;;;;;;;;;;5092079;28;20977;-57
2023/06/26 13:27:39;;;;;;;5.23;4.70;;;;;;;;;;5092059;28;20843;-57
2023/06/26 13:30:07;;;;;;;4.70;4.40;;;;;;;;;;5092342;28;20450;-57
2023/06/26 13:32:34;;;;;;;4.57;4.17;;;;;;;;;;5096130;28;20439;-57
2023/06/26 13:35:01;;;;;;;4.77;4.47;;;;;;;;;;5095944;28;20471;-58
2023/06/26 13:37:28;;;;;;;5.40;5.10;;;;;;;;;;5095912;28;20443;-57
2023/06/26 13:39:57;;;;;;;4.87;4.57;;;;;;;;;;5095805;28;20932;-58
2023/06/26 13:42:24;;;;;;;5.37;4.97;;;;;;;;;;5095912;28;20479;-57
2023/06/26 13:44:51;;;;;;;5.60;5.20;;;;;;;;;;5095786;28;20438;-57
2023/06/26 13:47:18;;;;;;;17.27;15.87;;;;;;;;;;5095624;28;20450;-58
2023/06/26 13:49:45;;;;;;;5.60;5.10;;;;;;;;;;5095653;28;20529;-58
2023/06/26 13:52:12;;;;;;;5.13;4.73;;;;;;;;;;5095979;28;20439;-58
2023/06/26 13:54:40;;;;;;;5.47;4.97;;;;;;;;;;5096289;28;20874;-57
2023/06/26 13:57:08;;;;;;;5.07;4.70;;;;;;;;;;5095294;28;20478;-57
2023/06/26 13:59:36;;;;;;;5.37;4.90;;;;;;;;;;5095609;28;20443;-57
2023/06/26 14:02:03;;;;;;;4.93;4.57;;;;;;;;;;5094976;28;20471;-58
2023/06/26 14:04:30;;;;;;;4.40;4.10;;;;;;;;;;5095340;28;20461;-57